createdAt,value
2023-01-30T00:01:24.480Z,3.72
2023-01-30T00:03:52.790Z,3.74
2023-01-30T00:06:20.774Z,3.69
2023-01-30T00:08:48.375Z,3.67
2023-01-30T00:11:17.800Z,3.73
2023-01-30T00:13:46.001Z,3.83
2023-01-30T00:16:13.654Z,3.93
2023-01-30T00:18:43.459Z,3.90
2023-01-30T00:21:13.934Z,3.86
2023-01-30T00:23:42.334Z,3.98
2023-01-30T00:26:11.544Z,3.92
2023-01-30T00:28:39.442Z,3.91
2023-01-30T00:31:07.840Z,3.88
2023-01-30T00:33:38.013Z,3.72
2023-01-30T00:36:08.474Z,3.68
2023-01-30T00:38:36.676Z,3.84
2023-01-30T00:41:04.830Z,3.92
2023-01-30T00:43:34.090Z,3.95
2023-01-30T00:46:04.611Z,3.94
2023-01-30T00:48:32.223Z,4.05
2023-01-30T00:50:59.963Z,4.06
2023-01-30T00:53:29.006Z,3.92
2023-01-30T00:55:56.969Z,4.02
2023-01-30T00:58:25.125Z,3.82
2023-01-30T01:00:53.326Z,3.91
2023-01-30T01:03:21.606Z,3.75
2023-01-30T01:05:49.346Z,3.76
2023-01-30T01:08:17.016Z,3.77
2023-01-30T01:10:45.969Z,3.77
2023-01-30T01:13:13.562Z,3.77
2023-01-30T01:15:41.133Z,3.76
2023-01-30T01:18:09.734Z,3.81
2023-01-30T01:20:37.535Z,3.91
2023-01-30T01:23:05.104Z,3.84
2023-01-30T01:25:32.703Z,3.87
2023-01-30T01:28:02.077Z,3.94
2023-01-30T01:30:29.727Z,3.91
2023-01-30T01:32:57.608Z,3.88
2023-01-30T01:35:25.164Z,3.99
2023-01-30T01:37:53.362Z,3.88
2023-01-30T01:40:23.370Z,4.04
2023-01-30T01:42:51.133Z,3.80
2023-01-30T01:45:23.350Z,4.06
2023-01-30T01:48:03.145Z,4.00
2023-01-30T01:50:42.399Z,4.03
2023-01-30T01:53:13.527Z,4.05
2023-01-30T01:55:44.875Z,4.13
2023-01-30T01:58:18.531Z,4.11
2023-01-30T02:00:49.075Z,4.07
2023-01-30T02:03:23.730Z,4.22
2023-01-30T02:05:55.576Z,4.18
2023-01-30T02:08:27.632Z,4.17
2023-01-30T02:11:03.227Z,4.14
2023-01-30T02:13:33.044Z,3.99
2023-01-30T02:16:03.864Z,3.93
2023-01-30T02:18:34.273Z,4.09
2023-01-30T02:21:27.488Z,4.08
2023-01-30T02:24:31.229Z,4.02
2023-01-30T02:27:24.365Z,3.82
2023-01-30T02:30:27.100Z,3.94
2023-01-30T02:33:12.112Z,3.68
2023-01-30T02:35:54.221Z,3.93
2023-01-30T02:38:36.228Z,4.04
2023-01-30T02:41:20.267Z,3.80
2023-01-30T02:44:00.106Z,3.82
2023-01-30T02:46:39.331Z,3.81
2023-01-30T02:49:14.572Z,3.95
2023-01-30T02:51:46.038Z,3.86
2023-01-30T02:54:15.671Z,4.02
2023-01-30T02:56:46.475Z,3.81
2023-01-30T02:59:21.192Z,3.73
2023-01-30T03:02:18.346Z,3.69
2023-01-30T03:05:07.574Z,3.80
2023-01-30T03:07:44.907Z,3.93
2023-01-30T03:10:32.103Z,3.79
2023-01-30T03:13:10.326Z,3.78
2023-01-30T03:15:46.646Z,3.78
2023-01-30T03:18:15.987Z,3.86
2023-01-30T03:20:45.509Z,3.82
2023-01-30T03:23:13.366Z,3.72
2023-01-30T03:25:46.074Z,3.51
2023-01-30T03:28:19.883Z,3.53
2023-01-30T03:30:47.925Z,3.61
2023-01-30T03:33:15.618Z,3.64
2023-01-30T03:35:45.016Z,3.69
2023-01-30T03:38:12.780Z,3.71
2023-01-30T03:40:40.735Z,3.75
2023-01-30T03:43:08.281Z,3.92
2023-01-30T03:45:36.210Z,3.72
2023-01-30T03:48:04.183Z,3.83
2023-01-30T03:50:31.936Z,3.80
2023-01-30T03:53:00.871Z,3.94
2023-01-30T03:55:28.443Z,3.96
2023-01-30T03:57:57.449Z,3.90
2023-01-30T04:00:25.201Z,3.75
2023-01-30T04:02:53.149Z,3.86
2023-01-30T04:05:21.215Z,3.67
2023-01-30T04:07:50.431Z,3.65
2023-01-30T04:10:19.609Z,3.68
2023-01-30T04:12:47.578Z,3.88
2023-01-30T04:15:15.427Z,3.64
2023-01-30T04:17:43.674Z,3.49
2023-01-30T04:20:11.693Z,3.68
2023-01-30T04:22:39.409Z,3.65
2023-01-30T04:25:07.571Z,3.61
2023-01-30T04:27:36.586Z,3.54
2023-01-30T04:30:05.266Z,3.83
2023-01-30T04:32:32.967Z,3.88
2023-01-30T04:35:01.925Z,3.68
2023-01-30T04:37:29.467Z,3.64
2023-01-30T04:39:57.097Z,3.64
2023-01-30T04:42:24.769Z,3.76
2023-01-30T04:44:53.946Z,3.81
2023-01-30T04:47:21.509Z,3.93
2023-01-30T04:49:49.093Z,3.89
2023-01-30T04:52:16.936Z,3.86
2023-01-30T04:54:44.548Z,3.86
2023-01-30T04:57:12.178Z,3.73
2023-01-30T04:59:39.829Z,3.78
2023-01-30T05:02:08.877Z,3.46
2023-01-30T05:04:37.496Z,3.55
2023-01-30T05:07:05.712Z,3.57
2023-01-30T05:09:33.315Z,3.62
2023-01-30T05:12:01.075Z,3.39
2023-01-30T05:14:28.634Z,3.35
2023-01-30T05:16:56.315Z,3.47
2023-01-30T05:19:25.288Z,3.48
2023-01-30T05:21:53.115Z,3.33
2023-01-30T05:24:20.802Z,3.24
2023-01-30T05:26:48.461Z,3.32
2023-01-30T05:29:16.248Z,3.51
2023-01-30T05:31:43.945Z,3.40
2023-01-30T05:34:12.611Z,3.38
2023-01-30T05:36:41.627Z,3.38
2023-01-30T05:39:09.596Z,3.43
2023-01-30T05:41:37.374Z,3.27
2023-01-30T05:44:05.375Z,3.36
2023-01-30T05:46:33.040Z,3.44
2023-01-30T05:49:00.737Z,3.54
2023-01-30T05:51:28.487Z,3.43
2023-01-30T05:53:57.483Z,3.43
2023-01-30T05:56:25.168Z,3.40
2023-01-30T05:58:54.495Z,3.32
2023-01-30T06:01:24.587Z,3.16
2023-01-30T06:03:53.196Z,3.35
2023-01-30T06:06:21.983Z,3.47
2023-01-30T06:08:53.435Z,3.28
2023-01-30T06:11:25.409Z,3.40
2023-01-30T06:13:53.258Z,3.49
2023-01-30T06:16:21.267Z,3.32
2023-01-30T06:18:49.155Z,3.48
2023-01-30T06:21:17.966Z,3.54
2023-01-30T06:23:46.839Z,3.57
2023-01-30T06:26:14.560Z,3.37
2023-01-30T06:28:47.189Z,3.45
2023-01-30T06:31:15.152Z,3.63
2023-01-30T06:33:48.535Z,3.61
2023-01-30T06:36:17.458Z,3.32
2023-01-30T06:38:45.403Z,3.44
2023-01-30T06:41:13.160Z,3.46
2023-01-30T06:43:43.296Z,3.63
2023-01-30T06:46:12.222Z,3.44
2023-01-30T06:48:40.144Z,3.57
2023-01-30T06:51:08.013Z,3.49
2023-01-30T06:53:35.666Z,3.42
2023-01-30T06:56:03.643Z,3.69
2023-01-30T06:58:31.527Z,3.77
2023-01-30T07:01:01.600Z,3.54
2023-01-30T07:03:34.034Z,3.33
2023-01-30T07:06:01.784Z,3.31
2023-01-30T07:08:29.960Z,3.31
2023-01-30T07:10:58.303Z,3.33
2023-01-30T07:13:25.854Z,3.16
2023-01-30T07:15:55.889Z,3.35
2023-01-30T07:18:24.979Z,3.60
2023-01-30T07:20:53.956Z,3.44
2023-01-30T07:23:26.016Z,3.51
2023-01-30T07:25:55.931Z,3.50
2023-01-30T07:28:23.738Z,3.27
2023-01-30T07:30:54.118Z,3.25
2023-01-30T07:33:21.936Z,3.19
2023-01-30T07:35:51.195Z,3.17
2023-01-30T07:38:18.846Z,3.12
2023-01-30T07:40:46.571Z,3.17
2023-01-30T07:43:14.945Z,3.30
2023-01-30T07:45:45.573Z,3.31
2023-01-30T07:48:15.633Z,3.32
2023-01-30T07:53:27.180Z,3.57
2023-01-30T07:55:54.738Z,3.69
2023-01-30T07:58:22.605Z,3.65
2023-01-30T08:00:50.252Z,3.75
2023-01-30T08:03:21.141Z,3.64
2023-01-30T08:05:48.698Z,3.54
2023-01-30T08:08:16.526Z,3.55
2023-01-30T08:10:48.763Z,3.71
2023-01-30T08:13:16.840Z,3.69
2023-01-30T08:15:44.531Z,3.61
2023-01-30T08:18:12.315Z,3.91
2023-01-30T08:20:39.958Z,4.00
2023-01-30T08:23:08.540Z,3.96
2023-01-30T08:25:37.797Z,3.97
2023-01-30T08:28:06.870Z,4.15
2023-01-30T08:30:34.517Z,3.90
2023-01-30T08:33:02.122Z,4.13
2023-01-30T08:35:29.768Z,3.59
2023-01-30T08:37:57.622Z,3.78
2023-01-30T08:40:25.279Z,3.98
2023-01-30T08:42:52.903Z,4.27
2023-01-30T08:45:21.895Z,4.32
2023-01-30T08:47:49.703Z,4.34
2023-01-30T08:50:17.840Z,4.50
2023-01-30T08:52:45.665Z,4.70
2023-01-30T08:55:13.331Z,4.45
2023-01-30T08:57:40.907Z,4.45
2023-01-30T09:00:11.520Z,4.58
2023-01-30T09:02:41.093Z,4.57
2023-01-30T09:05:10.013Z,4.41
2023-01-30T09:07:40.063Z,4.50
2023-01-30T09:10:09.286Z,4.31
2023-01-30T09:12:37.228Z,4.44
2023-01-30T09:15:07.358Z,4.47
2023-01-30T09:17:42.052Z,4.51
2023-01-30T09:20:12.689Z,4.35
2023-01-30T09:22:41.932Z,4.20
2023-01-30T09:25:09.788Z,4.12
2023-01-30T09:27:37.361Z,4.37
2023-01-30T09:30:06.983Z,4.73
2023-01-30T09:32:34.539Z,4.65
2023-01-30T09:35:02.172Z,4.57
2023-01-30T09:37:31.199Z,4.67
2023-01-30T09:39:58.868Z,4.93
2023-01-30T09:42:54.813Z,4.63
2023-01-30T09:45:51.816Z,4.85
2023-01-30T09:48:29.686Z,4.91
2023-01-30T09:51:19.474Z,5.23
2023-01-30T09:54:13.315Z,5.77
2023-01-30T09:56:43.176Z,5.87
2023-01-30T09:59:23.423Z,5.80
2023-01-30T10:02:01.124Z,5.77
2023-01-30T10:04:34.616Z,5.80
2023-01-30T10:07:16.569Z,6.12
2023-01-30T10:09:59.432Z,6.35
2023-01-30T10:12:42.724Z,6.28
2023-01-30T10:15:32.324Z,6.23
2023-01-30T10:18:19.643Z,6.21
2023-01-30T10:21:00.340Z,6.17
2023-01-30T10:23:52.990Z,5.92
2023-01-30T10:26:26.800Z,5.84
2023-01-30T10:29:07.239Z,6.27
2023-01-30T10:31:43.877Z,6.36
2023-01-30T10:34:19.910Z,6.39
2023-01-30T10:36:55.937Z,6.21
2023-01-30T10:39:36.896Z,7.14
2023-01-30T10:42:12.386Z,6.71
2023-01-30T10:44:41.180Z,6.63
2023-01-30T10:47:34.710Z,6.88
2023-01-30T10:50:16.676Z,6.26
2023-01-30T10:52:56.537Z,8.09
2023-01-30T10:55:37.678Z,8.10
2023-01-30T10:58:17.428Z,9.01
2023-01-30T11:00:56.384Z,8.97
2023-01-30T11:03:35.400Z,9.62
2023-01-30T11:06:10.429Z,10.46
2023-01-30T11:08:38.543Z,11.07
2023-01-30T11:11:29.290Z,10.94
2023-01-30T11:14:06.434Z,11.34
2023-01-30T11:16:46.872Z,12.16
2023-01-30T11:19:20.821Z,12.70
2023-01-30T11:21:53.590Z,12.48
2023-01-30T11:24:24.297Z,12.99
2023-01-30T11:26:51.973Z,11.56
2023-01-30T11:29:29.664Z,11.84
2023-01-30T11:32:03.946Z,12.14
2023-01-30T11:34:32.137Z,11.34
2023-01-30T11:37:26.832Z,11.78
2023-01-30T11:39:54.536Z,10.77
2023-01-30T11:42:31.565Z,12.16
2023-01-30T11:45:16.313Z,12.58
2023-01-30T11:47:57.782Z,11.83
2023-01-30T11:50:35.238Z,12.27
2023-01-30T11:53:14.343Z,12.16
2023-01-30T11:55:52.950Z,12.27
2023-01-30T11:58:33.135Z,12.26
2023-01-30T12:01:03.206Z,11.84
2023-01-30T12:03:32.627Z,12.39
2023-01-30T12:06:00.414Z,12.56
2023-01-30T12:08:43.103Z,12.57
2023-01-30T12:11:29.819Z,12.98
2023-01-30T12:14:12.864Z,12.65
2023-01-30T12:16:57.510Z,12.75
2023-01-30T12:19:39.913Z,12.89
2023-01-30T12:22:21.197Z,12.76
2023-01-30T12:24:58.533Z,12.33
2023-01-30T12:27:42.768Z,10.95
2023-01-30T12:30:25.238Z,11.52
2023-01-30T12:36:00.251Z,11.04
2023-01-30T12:38:46.280Z,11.42
2023-01-30T12:41:30.587Z,11.57
2023-01-30T12:44:17.505Z,11.70
2023-01-30T12:47:04.145Z,11.98
2023-01-30T12:49:54.663Z,11.24
2023-01-30T12:52:51.759Z,11.12
2023-01-30T12:55:32.401Z,10.85
2023-01-30T12:58:10.532Z,10.80
2023-01-30T13:00:56.415Z,11.15
2023-01-30T13:03:35.726Z,11.23
2023-01-30T13:06:24.222Z,11.42
2023-01-30T13:09:09.762Z,10.58
2023-01-30T13:11:48.040Z,10.84
2023-01-30T13:14:25.958Z,10.86
2023-01-30T13:17:15.401Z,11.71
2023-01-30T13:19:51.983Z,11.71
2023-01-30T13:22:28.131Z,11.87
2023-01-30T13:25:06.164Z,11.67
2023-01-30T13:27:38.732Z,11.84
2023-01-30T13:30:15.996Z,11.54
2023-01-30T13:32:49.809Z,11.22
2023-01-30T13:35:24.154Z,10.62
2023-01-30T13:37:55.099Z,9.78
2023-01-30T13:40:27.686Z,9.78
2023-01-30T13:43:02.013Z,9.52
2023-01-30T13:45:37.953Z,9.57
2023-01-30T13:48:24.724Z,9.18
2023-01-30T13:51:15.080Z,8.98
2023-01-30T13:53:53.937Z,8.75
2023-01-30T13:56:41.827Z,8.44
2023-01-30T13:59:25.138Z,8.40
2023-01-30T14:02:19.155Z,9.20
2023-01-30T14:04:49.620Z,8.98
2023-01-30T14:07:24.573Z,9.41
2023-01-30T14:10:13.860Z,9.18
2023-01-30T14:12:44.861Z,8.90
2023-01-30T14:15:25.846Z,9.05
2023-01-30T14:18:03.647Z,8.96
2023-01-30T14:20:34.385Z,9.20
2023-01-30T14:23:06.487Z,9.10
2023-01-30T14:25:47.766Z,9.13
2023-01-30T14:28:48.756Z,8.63
2023-01-30T14:31:50.127Z,8.34
2023-01-30T14:35:16.517Z,8.33
2023-01-30T14:37:50.370Z,7.36
2023-01-30T14:40:35.822Z,8.10
2023-01-30T14:43:36.582Z,8.21
2023-01-30T14:46:08.500Z,7.56
2023-01-30T14:51:21.079Z,7.28
2023-01-30T14:53:57.051Z,7.71
2023-01-30T14:56:44.960Z,7.63
2023-01-30T14:59:26.328Z,7.65
2023-01-30T15:02:07.261Z,7.50
2023-01-30T15:04:44.062Z,7.91
2023-01-30T15:07:17.364Z,7.92
2023-01-30T15:09:55.296Z,7.52
2023-01-30T15:12:45.509Z,7.55
2023-01-30T15:15:37.612Z,7.78
2023-01-30T15:18:35.987Z,7.83
2023-01-30T15:21:33.948Z,7.56
2023-01-30T15:24:25.461Z,7.28
2023-01-30T15:27:09.399Z,7.45
2023-01-30T15:30:18.359Z,7.86
2023-01-30T15:32:49.063Z,7.80
2023-01-30T15:35:23.501Z,8.05
2023-01-30T15:37:53.518Z,7.58
2023-01-30T15:40:24.878Z,7.24
2023-01-30T15:43:08.779Z,7.47
2023-01-30T15:45:46.631Z,7.56
2023-01-30T15:48:41.471Z,7.24
2023-01-30T15:51:13.587Z,6.93
2023-01-30T15:53:44.191Z,7.00
2023-01-30T15:56:19.149Z,6.83
2023-01-30T15:58:47.346Z,6.69
2023-01-30T16:01:20.262Z,6.93
2023-01-30T16:03:50.716Z,7.04
2023-01-30T16:06:24.704Z,7.06
2023-01-30T16:08:57.785Z,6.77
2023-01-30T16:11:39.497Z,6.92
2023-01-30T16:14:12.826Z,6.88
2023-01-30T16:16:48.310Z,6.67
2023-01-30T16:19:26.208Z,6.51
2023-01-30T16:21:59.847Z,6.47
2023-01-30T16:24:29.474Z,6.36
2023-01-30T16:27:01.889Z,6.22
2023-01-30T16:29:33.442Z,6.26
2023-01-30T16:32:01.424Z,6.42
2023-01-30T16:34:33.894Z,6.13
2023-01-30T16:37:05.522Z,6.32
2023-01-30T16:39:35.105Z,6.13
2023-01-30T16:42:17.120Z,5.93
2023-01-30T16:44:44.769Z,6.37
2023-01-30T16:47:24.793Z,6.22
2023-01-30T16:49:56.397Z,5.84
2023-01-30T16:52:31.249Z,6.25
2023-01-30T16:55:02.833Z,6.40
2023-01-30T16:57:37.683Z,6.50
2023-01-30T17:00:19.501Z,6.43
2023-01-30T17:02:54.124Z,6.16
2023-01-30T17:05:26.625Z,6.35
2023-01-30T17:07:55.374Z,5.74
2023-01-30T17:11:04.922Z,5.78
2023-01-30T17:13:37.623Z,5.99
2023-01-30T17:16:30.488Z,6.16
2023-01-30T17:18:58.379Z,6.14
2023-01-30T17:21:31.492Z,6.14
2023-01-30T17:24:02.346Z,6.38
2023-01-30T17:26:30.804Z,6.32
2023-01-30T17:28:59.105Z,6.23
2023-01-30T17:31:27.051Z,6.42
2023-01-30T17:33:54.850Z,6.38
2023-01-30T17:36:27.873Z,6.26
2023-01-30T17:38:57.893Z,6.28
2023-01-30T17:41:28.601Z,6.26
2023-01-30T17:43:57.165Z,6.29
2023-01-30T17:46:33.433Z,6.34
2023-01-30T17:49:01.138Z,6.49
2023-01-30T17:51:31.501Z,6.62
2023-01-30T17:53:59.191Z,6.69
2023-01-30T17:56:32.765Z,6.53
2023-01-30T17:59:00.426Z,6.67
2023-01-30T18:01:28.164Z,6.70
2023-01-30T18:03:55.959Z,6.59
2023-01-30T18:06:24.432Z,6.54
2023-01-30T18:08:53.573Z,6.60
2023-01-30T18:11:22.687Z,6.67
2023-01-30T18:13:51.228Z,6.59
2023-01-30T18:16:23.008Z,6.64
2023-01-30T18:18:51.279Z,6.67
2023-01-30T18:21:18.924Z,6.74
2023-01-30T18:23:46.807Z,6.56
2023-01-30T18:26:16.729Z,6.67
2023-01-30T18:28:44.835Z,6.69
2023-01-30T18:31:12.634Z,6.42
2023-01-30T18:33:41.312Z,6.41
2023-01-30T18:36:11.565Z,6.47
2023-01-30T18:38:43.193Z,6.67
2023-01-30T18:41:13.700Z,6.36
2023-01-30T18:43:44.265Z,6.43
2023-01-30T18:46:13.690Z,6.53
2023-01-30T18:48:42.617Z,6.42
2023-01-30T18:51:12.101Z,6.30
2023-01-30T18:53:40.830Z,6.47
2023-01-30T18:56:10.506Z,6.39
2023-01-30T18:58:38.294Z,6.54
2023-01-30T19:01:13.987Z,6.57
2023-01-30T19:03:42.428Z,6.07
2023-01-30T19:06:11.958Z,6.34
2023-01-30T19:08:39.901Z,6.29
2023-01-30T19:11:09.792Z,5.54
2023-01-30T19:13:37.526Z,5.50
2023-01-30T19:16:06.056Z,5.69
2023-01-30T19:18:35.388Z,5.63
2023-01-30T19:21:03.775Z,5.22
2023-01-30T19:23:31.478Z,5.45
2023-01-30T19:25:59.922Z,5.23
2023-01-30T19:28:30.781Z,5.31
2023-01-30T19:30:58.521Z,5.43
2023-01-30T19:33:26.135Z,5.61
2023-01-30T19:35:55.537Z,5.54
2023-01-30T19:38:23.913Z,5.63
2023-01-30T19:40:51.549Z,5.50
2023-01-30T19:43:19.262Z,5.83
2023-01-30T19:45:57.560Z,5.85
2023-01-30T19:48:26.095Z,6.04
2023-01-30T19:50:58.146Z,6.07
2023-01-30T19:53:25.779Z,6.10
2023-01-30T19:55:54.057Z,6.27
2023-01-30T19:58:21.707Z,6.37
2023-01-30T20:00:49.601Z,6.38
2023-01-30T20:03:17.550Z,6.30
2023-01-30T20:05:45.382Z,6.30
2023-01-30T20:08:30.519Z,6.19
2023-01-30T20:11:03.980Z,6.19
2023-01-30T20:13:33.569Z,6.26
2023-01-30T20:16:06.299Z,6.13
2023-01-30T20:18:35.742Z,6.16
2023-01-30T20:21:07.649Z,6.15
2023-01-30T20:23:39.759Z,6.14
2023-01-30T20:26:12.854Z,6.24
2023-01-30T20:28:42.589Z,6.07
2023-01-30T20:31:12.635Z,6.01
2023-01-30T20:33:41.124Z,5.99
2023-01-30T20:36:10.936Z,6.09
2023-01-30T20:38:41.810Z,6.06
2023-01-30T20:41:11.648Z,5.97
2023-01-30T20:43:42.827Z,5.93
2023-01-30T20:46:13.095Z,5.77
2023-01-30T20:48:41.197Z,5.71
2023-01-30T20:51:11.465Z,5.71
2023-01-30T20:53:47.837Z,5.20
2023-01-30T20:56:17.580Z,5.10
2023-01-30T20:58:46.524Z,5.00
2023-01-30T21:01:18.228Z,4.99
2023-01-30T21:03:47.769Z,5.17
2023-01-30T21:06:37.153Z,5.32
2023-01-30T21:09:07.923Z,5.52
2023-01-30T21:11:35.671Z,5.08
2023-01-30T21:14:04.169Z,5.14
2023-01-30T21:16:35.017Z,5.46
2023-01-30T21:19:06.479Z,5.23
2023-01-30T21:21:39.195Z,5.29
2023-01-30T21:24:13.234Z,5.37
2023-01-30T21:26:44.954Z,5.30
2023-01-30T21:29:14.356Z,5.33
2023-01-30T21:31:43.270Z,5.02
2023-01-30T21:34:14.405Z,5.04
2023-01-30T21:36:42.251Z,5.07
2023-01-30T21:39:13.565Z,5.16
2023-01-30T21:41:46.134Z,5.31
2023-01-30T21:44:14.267Z,5.07
2023-01-30T21:46:44.761Z,4.82
2023-01-30T21:49:13.571Z,5.16
2023-01-30T21:51:42.532Z,5.15
2023-01-30T21:54:12.535Z,5.30
2023-01-30T21:56:41.211Z,5.07
2023-01-30T21:59:09.527Z,4.99
2023-01-30T22:01:41.042Z,4.92
2023-01-30T22:04:11.078Z,4.79
2023-01-30T22:06:39.894Z,4.96
2023-01-30T22:09:08.352Z,5.01
2023-01-30T22:11:38.988Z,5.00
2023-01-30T22:14:06.882Z,5.08
2023-01-30T22:16:34.631Z,5.16
2023-01-30T22:19:04.667Z,5.19
2023-01-30T22:21:34.659Z,5.04
2023-01-30T22:24:05.053Z,5.01
2023-01-30T22:26:32.926Z,5.04
2023-01-30T22:29:04.406Z,5.08
2023-01-30T22:31:36.399Z,4.99
2023-01-30T22:34:04.659Z,4.79
2023-01-30T22:36:34.055Z,4.99
2023-01-30T22:39:08.277Z,4.86
2023-01-30T22:41:36.366Z,4.84
2023-01-30T22:44:09.733Z,4.81
2023-01-30T22:46:39.789Z,4.86
2023-01-30T22:49:09.381Z,4.96
2023-01-30T22:51:39.543Z,5.06
2023-01-30T22:54:10.137Z,4.95
2023-01-30T22:56:39.848Z,4.82
2023-01-30T22:59:10.309Z,4.61
2023-01-30T23:01:39.658Z,4.42
2023-01-30T23:04:13.092Z,4.25
2023-01-30T23:06:41.841Z,4.32
2023-01-30T23:09:13.194Z,4.36
2023-01-30T23:11:43.287Z,4.21
2023-01-30T23:14:14.380Z,4.34
2023-01-30T23:16:44.197Z,4.13
2023-01-30T23:19:13.339Z,4.15
2023-01-30T23:21:44.113Z,4.23
2023-01-30T23:24:14.392Z,4.52
2023-01-30T23:26:47.166Z,4.48
2023-01-30T23:29:20.090Z,4.42
2023-01-30T23:31:48.392Z,4.26
2023-01-30T23:34:18.907Z,4.20
2023-01-30T23:36:46.765Z,4.24
2023-01-30T23:39:15.161Z,4.23
2023-01-30T23:41:44.229Z,4.35
2023-01-30T23:44:11.888Z,4.33
2023-01-30T23:46:42.487Z,4.33
2023-01-30T23:49:13.894Z,4.34
2023-01-30T23:51:44.221Z,4.62
2023-01-30T23:54:13.486Z,4.66
2023-01-30T23:56:44.931Z,4.73
2023-01-30T23:59:12.866Z,4.75
